Time;durP1;ratioP1;P1;durP2;ratioP2;P2;SDS_P1;SDS_P2;PMS_P1;PMS_P2;Temp;Humidity;BMP_temperature;BMP_pressure;BME280_temperature;BME280_humidity;BME280_pressure;Samples;Min_cycle;Max_cycle;Signal;HPM_P1;HPM_P2
2022/03/13 00:01:03;;;;;;;19.88;11.43;;;;;;;9.99;44.12;101918.88;5032508;28;20105;-81
2022/03/13 00:03:49;;;;;;;19.38;10.80;;;;;;;9.94;43.54;101916.19;5016836;28;20262;-82
2022/03/13 00:06:35;;;;;;;19.13;10.25;;;;;;;9.64;37.92;101909.03;5042836;28;20429;-80
2022/03/13 00:09:22;;;;;;;25.67;13.65;;;;;;;9.25;35.67;101909.72;5036325;28;20045;-81
2022/03/13 00:12:08;;;;;;;25.85;14.68;;;;;;;9.14;36.83;101913.59;5020637;28;20053;-81
2022/03/13 00:14:56;;;;;;;21.67;13.35;;;;;;;8.90;36.01;101915.25;5024669;28;20041;-82
2022/03/13 00:17:42;;;;;;;30.58;13.48;;;;;;;8.93;34.86;101912.81;5026723;28;20071;-82
2022/03/13 00:20:27;;;;;;;23.83;13.27;;;;;;;8.69;33.96;101910.94;5034790;28;20552;-82
2022/03/13 00:23:12;;;;;;;16.85;8.48;;;;;;;9.11;41.63;101922.25;5009661;28;20053;-80
2022/03/13 00:25:57;;;;;;;16.77;9.88;;;;;;;9.62;47.56;101922.06;5014694;28;20053;-79
2022/03/13 00:28:44;;;;;;;10.77;6.15;;;;;;;9.79;46.81;101927.97;5000932;28;20053;-81
2022/03/13 00:31:29;;;;;;;17.52;11.07;;;;;;;9.67;41.22;101922.03;5004505;28;20049;-80
2022/03/13 00:34:14;;;;;;;28.08;13.70;;;;;;;9.39;37.04;101921.63;5017328;28;20052;-80
2022/03/13 00:37:07;;;;;;;23.50;12.90;;;;;;;9.44;40.55;101912.66;5089318;27;20369;-70
2022/03/13 00:39:54;;;;;;;21.75;12.38;;;;;;;9.55;43.11;101914.22;5093021;28;20462;-69
2022/03/13 00:42:39;;;;;;;23.67;12.35;;;;;;;9.48;40.60;101910.19;5081710;28;20503;-69
2022/03/13 00:45:24;;;;;;;16.08;10.57;;;;;;;9.18;38.48;101909.22;5069048;28;20044;-70
2022/03/13 00:48:09;;;;;;;13.18;6.93;;;;;;;9.26;41.49;101908.66;5068994;28;20047;-70
2022/03/13 00:50:55;;;;;;;15.50;9.68;;;;;;;9.60;45.69;101907.97;5083798;28;20415;-70
2022/03/13 00:53:41;;;;;;;21.63;11.10;;;;;;;9.79;47.91;101908.94;5089076;28;20047;-70
2022/03/13 00:56:25;;;;;;;19.35;10.85;;;;;;;9.78;46.24;101904.59;5088936;28;20047;-70
2022/03/13 00:59:10;;;;;;;20.75;9.85;;;;;;;9.82;46.67;101903.75;5088957;28;20116;-69
2022/03/13 01:01:55;;;;;;;18.52;9.70;;;;;;;9.34;38.51;101897.22;5069024;28;20051;-69
2022/03/13 01:04:40;;;;;;;19.45;9.65;;;;;;;9.36;41.99;101907.78;5086779;28;20047;-69
2022/03/13 01:07:25;;;;;;;17.30;10.68;;;;;;;9.39;42.06;101899.91;5084747;28;20047;-70
2022/03/13 01:10:10;;;;;;;13.93;8.68;;;;;;;9.44;44.61;101897.19;5079766;28;20110;-70
2022/03/13 01:12:56;;;;;;;22.35;13.93;;;;;;;9.36;40.59;101892.31;5080452;28;20065;-70
2022/03/13 01:15:43;;;;;;;17.63;10.10;;;;;;;9.30;41.00;101887.19;5083805;28;20518;-70
2022/03/13 01:18:27;;;;;;;16.85;9.77;;;;;;;9.22;41.63;101893.19;5088499;28;20055;-71
2022/03/13 01:21:13;;;;;;;23.02;12.00;;;;;;;9.61;47.33;101896.00;5081940;28;20518;-71
2022/03/13 01:23:59;;;;;;;20.20;10.68;;;;;;;9.71;48.27;101890.50;5082425;28;20055;-69
2022/03/13 01:26:46;;;;;;;18.83;9.73;;;;;;;9.72;47.15;101892.97;5087033;28;20047;-69
2022/03/13 01:29:32;;;;;;;19.95;12.60;;;;;;;9.74;47.21;101892.69;5084873;28;20056;-69
2022/03/13 01:32:17;;;;;;;18.48;12.05;;;;;;;9.53;42.89;101889.25;5087782;28;20426;-69
2022/03/13 01:35:03;;;;;;;10.48;6.05;;;;;;;9.79;48.84;101892.66;5085934;28;20051;-70
2022/03/13 01:37:48;;;;;;;14.52;9.48;;;;;;;9.95;50.63;101891.47;5088089;28;20558;-70
2022/03/13 01:40:33;;;;;;;13.88;8.52;;;;;;;9.93;49.41;101888.22;5088335;28;20055;-70
2022/03/13 01:43:18;;;;;;;14.90;8.18;;;;;;;10.03;51.60;101892.75;5067935;28;20187;-70
2022/03/13 01:46:04;;;;;;;23.88;10.65;;;;;;;10.09;51.19;101892.44;5067644;28;20048;-71
2022/03/13 01:48:55;;;;;;;15.20;7.55;;;;;;;10.36;53.85;101886.56;5054186;28;20502;-71
2022/03/13 01:51:40;;;;;;;19.65;9.40;;;;;;;10.14;48.02;101886.16;5054494;28;20052;-70
2022/03/13 01:54:26;;;;;;;17.27;9.93;;;;;;;9.95;45.47;101880.59;5070494;28;20538;-71
2022/03/13 01:57:17;;;;;;;12.07;7.10;;;;;;;10.06;49.94;101882.13;5054305;28;20047;-70
2022/03/13 02:00:08;;;;;;;14.93;9.90;;;;;;;10.01;48.45;101876.72;5060018;28;20055;-70
2022/03/13 02:03:00;;;;;;;24.67;11.07;;;;;;;10.06;48.60;101865.00;5066228;28;20056;-70
2022/03/13 02:05:45;;;;;;;19.38;10.00;;;;;;;10.02;48.01;101858.53;5074085;28;20413;-70
2022/03/13 02:08:34;;;;;;;17.00;9.18;;;;;;;10.05;49.54;101853.34;5072189;28;20047;-70
2022/03/13 02:11:24;;;;;;;14.65;9.02;;;;;;;10.25;51.99;101855.94;5074276;28;20047;-70
2022/03/13 02:14:11;;;;;;;17.45;8.95;;;;;;;10.36;53.38;101853.13;5073550;28;20043;-70
2022/03/13 02:16:56;;;;;;;19.65;11.35;;;;;;;10.40;52.81;101852.28;5074060;28;20047;-71
2022/03/13 02:19:41;;;;;;;13.77;7.18;;;;;;;10.47;54.12;101846.47;5073925;28;20059;-71
2022/03/13 02:22:25;;;;;;;11.82;7.30;;;;;;;10.52;54.11;101849.16;5072410;28;20119;-70
2022/03/13 02:25:19;;;;;;;10.77;6.65;;;;;;;10.47;52.03;101849.19;5053982;28;20048;-71
2022/03/13 02:28:03;;;;;;;13.70;9.15;;;;;;;10.64;54.78;101844.16;5053799;28;20404;-70
2022/03/13 02:30:49;;;;;;;10.40;7.10;;;;;;;10.79;55.22;101845.88;5053704;28;20048;-71
2022/03/13 02:33:34;;;;;;;11.85;8.43;;;;;;;10.86;55.89;101841.75;5061671;28;20044;-70
2022/03/13 02:36:31;;;;;;;9.43;6.35;;;;;;;10.82;54.90;101834.44;5066519;28;20067;-69
2022/03/13 02:39:16;;;;;;;14.25;8.77;;;;;;;10.73;54.19;101829.63;5053501;28;20071;-71
2022/03/13 02:42:02;;;;;;;17.35;8.27;;;;;;;10.65;53.50;101841.16;5053666;28;20047;-70
2022/03/13 02:44:46;;;;;;;14.18;9.35;;;;;;;10.56;53.00;101833.91;5053882;28;20047;-70
2022/03/13 02:47:31;;;;;;;8.45;5.28;;;;;;;10.67;54.41;101838.13;5053510;28;20048;-70
2022/03/13 02:50:17;;;;;;;12.10;7.57;;;;;;;10.65;54.71;101838.41;5053314;28;20052;-70
2022/03/13 02:53:03;;;;;;;13.88;7.85;;;;;;;10.65;54.06;101837.59;5055808;28;20060;-70
2022/03/13 02:55:48;;;;;;;11.52;7.75;;;;;;;10.65;54.03;101834.88;5053567;28;20043;-70
2022/03/13 02:58:33;;;;;;;9.35;5.18;;;;;;;10.69;55.10;101836.75;5052350;28;20075;-70
2022/03/13 03:01:19;;;;;;;12.20;8.05;;;;;;;10.73;54.99;101828.81;5053204;28;20554;-71
2022/03/13 03:04:05;;;;;;;12.90;6.65;;;;;;;10.79;55.82;101824.13;5056844;28;20047;-70
2022/03/13 03:06:54;;;;;;;12.38;7.88;;;;;;;10.85;54.44;101821.06;5073347;28;20059;-70
2022/03/13 03:09:39;;;;;;;10.60;6.78;;;;;;;10.93;55.32;101825.03;5072941;28;20051;-70
2022/03/13 03:12:24;;;;;;;15.38;8.38;;;;;;;10.62;51.15;101825.38;5073366;28;20056;-70
2022/03/13 03:15:11;;;;;;;10.00;6.68;;;;;;;10.60;52.39;101821.34;5062746;28;20060;-70
2022/03/13 03:17:56;;;;;;;16.20;10.07;;;;;;;10.63;54.44;101827.00;5052997;28;20531;-70
2022/03/13 03:20:41;;;;;;;8.07;5.43;;;;;;;10.88;55.81;101825.09;5053011;28;20400;-70
2022/03/13 03:23:26;;;;;;;7.45;4.28;;;;;;;11.02;55.69;101824.09;5061612;28;20069;-70
2022/03/13 03:26:11;;;;;;;8.73;5.35;;;;;;;10.97;55.17;101820.66;5075780;28;20052;-70
2022/03/13 03:28:56;;;;;;;15.57;8.02;;;;;;;10.85;53.91;101822.97;5072798;28;20055;-71
2022/03/13 03:31:48;;;;;;;12.27;7.90;;;;;;;10.67;51.62;101824.50;5077534;28;20506;-71
2022/03/13 03:34:33;;;;;;;15.35;9.93;;;;;;;10.59;52.39;101827.88;5057115;28;20040;-71
2022/03/13 03:37:18;;;;;;;12.77;7.70;;;;;;;10.38;51.13;101823.72;5052514;28;20056;-72
2022/03/13 03:40:05;;;;;;;15.27;9.23;;;;;;;10.23;48.36;101816.53;5051561;28;20056;-68
2022/03/13 03:42:50;;;;;;;16.05;10.45;;;;;;;10.29;52.30;101820.81;5052485;28;20419;-69
2022/03/13 03:45:35;;;;;;;8.68;6.93;;;;;;;10.23;50.48;101813.81;5052795;28;20052;-71
2022/03/13 03:48:22;;;;;;;11.25;7.75;;;;;;;10.31;53.03;101815.91;5052543;28;20048;-68
2022/03/13 03:51:07;;;;;;;9.73;6.10;;;;;;;10.51;55.60;101812.19;5052375;28;20063;-69
2022/03/13 03:53:52;;;;;;;15.38;8.82;;;;;;;10.46;53.99;101817.69;5056112;28;20538;-69
2022/03/13 03:56:37;;;;;;;10.48;7.85;;;;;;;10.42;53.67;101822.88;5072255;28;20047;-68
2022/03/13 03:59:23;;;;;;;9.32;6.43;;;;;;;10.41;54.22;101820.47;5072107;28;20064;-68
2022/03/13 04:02:08;;;;;;;12.35;7.22;;;;;;;10.37;54.47;101816.66;5072230;28;20048;-69
2022/03/13 04:04:53;;;;;;;9.43;6.50;;;;;;;10.36;54.60;101813.16;5062230;28;20494;-69
2022/03/13 04:07:38;;;;;;;12.20;7.70;;;;;;;10.33;53.16;101816.44;5055733;28;20043;-69
2022/03/13 04:10:24;;;;;;;10.63;7.40;;;;;;;10.37;55.06;101806.59;5071677;28;20052;-69
2022/03/13 04:13:09;;;;;;;16.67;8.80;;;;;;;10.32;53.96;101814.00;5072055;28;20079;-68
2022/03/13 04:15:56;;;;;;;6.93;4.53;;;;;;;10.31;54.17;101807.75;5071348;28;20064;-69
2022/03/13 04:18:40;;;;;;;10.35;7.45;;;;;;;10.20;53.13;101809.78;5071989;28;20051;-69
2022/03/13 04:21:25;;;;;;;9.90;6.30;;;;;;;10.33;55.74;101799.31;5071710;28;20051;-69
2022/03/13 04:24:11;;;;;;;10.65;6.20;;;;;;;10.34;56.25;101809.91;5071906;28;20522;-69
2022/03/13 04:26:57;;;;;;;16.80;9.80;;;;;;;10.32;54.69;101808.56;5071862;28;20052;-68
2022/03/13 04:29:42;;;;;;;13.30;8.50;;;;;;;10.39;55.47;101809.03;5071572;28;20630;-67
2022/03/13 04:32:26;;;;;;;8.25;5.28;;;;;;;10.23;53.47;101800.22;5071844;28;20047;-68
2022/03/13 04:35:11;;;;;;;8.68;5.40;;;;;;;10.27;55.16;101802.06;5063064;28;20043;-68
2022/03/13 04:37:56;;;;;;;10.90;7.18;;;;;;;10.16;52.50;101805.16;5063804;28;20085;-69
2022/03/13 04:40:41;;;;;;;10.38;6.10;;;;;;;10.19;55.23;101800.00;5071641;28;20617;-69
2022/03/13 04:43:26;;;;;;;10.45;7.13;;;;;;;10.26;55.87;101805.06;5069999;28;20048;-68
2022/03/13 04:46:11;;;;;;;8.73;5.85;;;;;;;10.46;56.94;101806.81;5060048;28;20510;-68
2022/03/13 04:48:57;;;;;;;6.43;4.30;;;;;;;10.61;57.68;101809.38;5071481;28;20439;-68
2022/03/13 04:51:41;;;;;;;13.73;7.70;;;;;;;10.65;57.81;101816.66;5071685;28;20514;-68
2022/03/13 04:54:26;;;;;;;9.35;5.63;;;;;;;10.59;57.53;101808.84;5071637;28;20051;-68
2022/03/13 04:57:11;;;;;;;9.55;6.07;;;;;;;10.51;56.51;101817.63;5071384;28;20048;-69
2022/03/13 04:59:56;;;;;;;7.60;4.53;;;;;;;10.53;57.41;101807.25;5077062;28;20522;-69
2022/03/13 05:02:41;;;;;;;13.73;7.75;;;;;;;10.48;56.32;101818.19;5077249;28;20063;-67
2022/03/13 05:05:26;;;;;;;8.35;5.72;;;;;;;10.52;57.37;101814.59;5064052;28;20043;-68
2022/03/13 05:08:13;;;;;;;7.53;5.00;;;;;;;10.51;56.88;101815.72;5051740;28;20044;-67
2022/03/13 05:10:59;;;;;;;10.73;7.63;;;;;;;10.48;57.34;101812.75;5054136;28;20415;-70
2022/03/13 05:13:44;;;;;;;13.63;8.88;;;;;;;10.44;57.00;101815.25;5071492;28;20051;-70
2022/03/13 05:16:29;;;;;;;8.55;5.28;;;;;;;10.43;57.10;101826.41;5071372;28;20052;-68
2022/03/13 05:19:14;;;;;;;10.70;6.60;;;;;;;10.34;55.65;101830.84;5071077;28;20506;-69
2022/03/13 05:22:00;;;;;;;13.63;7.28;;;;;;;10.40;57.26;101821.53;5072089;28;20067;-69
2022/03/13 05:24:46;;;;;;;7.68;4.97;;;;;;;10.57;58.42;101827.34;5075107;28;20071;-68
2022/03/13 05:27:31;;;;;;;14.48;9.00;;;;;;;10.50;56.88;101824.16;5075055;28;20427;-69
2022/03/13 05:30:20;;;;;;;28.27;15.43;;;;;;;10.13;50.96;101825.56;5074773;28;20110;-69
2022/03/13 05:33:06;;;;;;;16.33;9.50;;;;;;;10.12;53.27;101834.78;5074889;28;20514;-70
2022/03/13 05:35:50;;;;;;;23.05;12.65;;;;;;;10.16;54.96;101826.91;5068581;22;20065;-80
2022/03/13 05:38:36;;;;;;;23.67;12.38;;;;;;;9.96;52.04;101821.59;4993129;28;20434;-82
2022/03/13 05:41:22;;;;;;;13.65;6.47;;;;;;;10.03;55.00;101825.63;4993010;28;20061;-81
2022/03/13 05:44:09;;;;;;;14.45;8.65;;;;;;;9.93;53.93;101823.00;4993645;28;20057;-84
2022/03/13 05:46:53;;;;;;;23.42;12.65;;;;;;;9.70;49.38;101840.81;4981968;28;20045;-79
2022/03/13 05:49:38;;;;;;;16.77;7.80;;;;;;;9.69;52.53;101836.50;4982778;28;20050;-81
2022/03/13 05:52:23;;;;;;;12.25;7.57;;;;;;;9.81;55.73;101847.81;4994509;28;20097;-82
2022/03/13 05:55:08;;;;;;;11.85;6.90;;;;;;;9.68;51.61;101853.06;4995311;28;20754;-78
2022/03/13 05:57:54;;;;;;;17.33;11.20;;;;;;;9.62;51.64;101854.19;4975893;28;20061;-81
2022/03/13 06:00:42;;;;;;;13.00;8.43;;;;;;;9.55;51.95;101856.41;4982492;28;20046;-83
2022/03/13 06:03:27;;;;;;;16.33;8.45;;;;;;;9.65;54.88;101853.63;4977689;28;20054;-83
2022/03/13 06:06:14;;;;;;;10.07;7.05;;;;;;;9.64;53.09;101860.16;4982944;28;20529;-83
2022/03/13 06:08:59;;;;;;;28.00;15.15;;;;;;;8.92;34.75;101845.28;4974389;28;20053;-84
2022/03/13 06:11:44;;;;;;;21.90;13.25;;;;;;;8.20;35.01;101851.06;4973246;28;20062;-81
2022/03/13 06:14:29;;;;;;;22.98;13.45;;;;;;;9.07;33.60;101857.97;4975065;28;20069;-81
2022/03/13 06:17:13;;;;;;;20.98;13.43;;;;;;;9.59;32.28;101857.47;4992886;28;20046;-80
2022/03/13 06:19:58;;;;;;;36.25;15.73;;;;;;;9.86;31.52;101857.81;4972059;28;20081;-81
2022/03/13 06:22:46;;;;;;;23.58;14.25;;;;;;;10.83;30.31;101855.09;4968464;28;20042;-81
2022/03/13 06:25:31;;;;;;;23.45;13.75;;;;;;;10.82;28.83;101857.00;4991007;28;20027;-84
2022/03/13 06:28:18;;;;;;;24.45;14.63;;;;;;;10.67;29.28;101859.88;4980077;28;20053;-84
2022/03/13 06:31:03;;;;;;;33.75;13.95;;;;;;;12.51;28.21;101860.59;4959167;28;20043;-82
2022/03/13 06:33:48;;;;;;;20.08;10.82;;;;;;;13.06;26.58;101857.94;4968173;28;20061;-83
2022/03/13 06:36:34;;;;;;;15.60;10.02;;;;;;;13.68;25.33;101875.50;4990464;28;20492;-83
2022/03/13 06:39:18;;;;;;;22.80;13.98;;;;;;;13.34;25.48;101875.16;4974707;28;20051;-83
2022/03/13 06:42:03;;;;;;;14.50;10.32;;;;;;;13.83;24.98;101877.06;4975292;28;20050;-81
2022/03/13 06:44:48;;;;;;;20.50;10.15;;;;;;;14.81;23.97;101875.19;4975717;28;20039;-83
2022/03/13 06:47:34;;;;;;;19.45;11.98;;;;;;;14.73;23.54;101882.22;4981718;28;20043;-83
2022/03/13 06:50:23;;;;;;;24.23;13.35;;;;;;;15.58;22.93;101883.69;4975005;28;20053;-80
2022/03/13 06:53:10;;;;;;;22.88;14.60;;;;;;;16.03;22.21;101888.88;4978462;28;20439;-81
2022/03/13 06:55:55;;;;;;;21.55;13.68;;;;;;;12.13;26.65;101891.81;4976455;28;20050;-85
2022/03/13 06:58:41;;;;;;;17.67;9.77;;;;;;;9.92;30.12;101892.00;4974717;28;20045;-84
2022/03/13 07:01:26;;;;;;;19.80;11.95;;;;;;;8.50;33.75;101895.25;4978953;28;20087;-85
2022/03/13 07:04:12;;;;;;;17.63;11.05;;;;;;;7.60;35.08;101893.22;4975054;28;20057;-83
2022/03/13 07:06:57;;;;;;;22.85;12.90;;;;;;;7.03;36.49;101898.66;4974935;28;20042;-82
2022/03/13 07:09:41;;;;;;;19.42;9.93;;;;;;;6.50;37.33;101892.38;4978127;28;20119;-82
2022/03/13 07:12:26;;;;;;;18.35;10.15;;;;;;;6.45;38.79;101895.00;4976854;28;20056;-81
2022/03/13 07:15:13;;;;;;;16.23;8.88;;;;;;;6.37;39.33;101906.31;4974748;28;20065;-83
2022/03/13 07:17:58;;;;;;;21.23;11.43;;;;;;;6.42;38.71;101909.88;4978821;28;20046;-81
2022/03/13 07:20:43;;;;;;;16.40;9.68;;;;;;;6.54;38.14;101911.59;4976355;28;20077;-82
2022/03/13 07:23:28;;;;;;;24.33;9.07;;;;;;;6.65;37.51;101913.28;4975056;28;20518;-82
2022/03/13 07:26:14;;;;;;;15.63;8.75;;;;;;;6.65;37.71;101908.72;4975992;28;20053;-83
2022/03/13 07:29:01;;;;;;;20.45;10.63;;;;;;;6.63;37.68;101900.03;4976047;28;20046;-85
2022/03/13 07:31:46;;;;;;;16.08;9.60;;;;;;;6.75;37.20;101903.38;4975110;28;20054;-82
2022/03/13 07:34:30;;;;;;;14.82;8.02;;;;;;;6.94;36.26;101906.44;4978442;28;20069;-82
2022/03/13 07:37:15;;;;;;;11.80;8.18;;;;;;;7.00;36.57;101904.59;4973890;28;20045;-82
2022/03/13 07:40:01;;;;;;;11.73;7.47;;;;;;;7.08;36.44;101904.09;4974081;28;20412;-82
2022/03/13 07:42:46;;;;;;;13.98;8.95;;;;;;;7.06;35.71;101904.34;4973084;28;20069;-85
2022/03/13 07:45:31;;;;;;;14.48;9.23;;;;;;;7.24;35.43;101911.22;4972824;28;20479;-82
2022/03/13 07:48:16;;;;;;;16.00;7.25;;;;;;;7.17;36.54;101905.22;4974957;28;20411;-83
2022/03/13 07:51:04;;;;;;;13.80;7.43;;;;;;;7.41;35.38;101909.13;4973049;28;20046;-82
2022/03/13 07:53:49;;;;;;;16.05;8.52;;;;;;;7.64;35.49;101911.38;4976559;28;20062;-83
2022/03/13 07:56:34;;;;;;;8.93;6.75;;;;;;;7.72;35.12;101910.03;4974761;28;20050;-82
2022/03/13 07:59:19;;;;;;;15.30;8.40;;;;;;;7.78;34.19;101910.84;4974648;28;20054;-83
2022/03/13 08:02:04;;;;;;;19.77;6.93;;;;;;;8.01;33.98;101913.09;4973778;28;20049;-79
2022/03/13 08:04:49;;;;;;;;;;;;;;;8.16;33.33;101913.91;4974275;28;20057;-83
2022/03/13 08:07:34;;;;;;;10.35;6.20;;;;;;;8.36;31.96;101915.84;4975696;28;19914;-82
2022/03/13 08:10:21;;;;;;;9.57;5.78;;;;;;;7.74;32.11;101916.81;4968615;28;20046;-82
2022/03/13 08:13:06;;;;;;;11.43;6.97;;;;;;;7.71;33.11;101917.34;4962121;28;20053;-83
2022/03/13 08:15:51;;;;;;;9.70;6.95;;;;;;;8.08;32.06;101916.31;4992037;28;20046;-83
2022/03/13 08:18:37;;;;;;;14.07;5.25;;;;;;;7.76;33.13;101923.84;4988409;28;20443;-83
2022/03/13 08:21:22;;;;;;;9.50;6.38;;;;;;;8.18;33.33;101910.91;4977138;28;20054;-82
2022/03/13 08:24:07;;;;;;;10.48;5.45;;;;;;;8.18;33.09;101916.34;4976613;28;20057;-83
2022/03/13 08:26:52;;;;;;;7.72;5.35;;;;;;;8.40;32.40;101908.81;4984356;28;20042;-83
2022/03/13 08:29:38;;;;;;;13.80;6.63;;;;;;;8.51;33.08;101913.13;4975998;28;20042;-83
2022/03/13 08:32:23;;;;;;;7.77;5.13;;;;;;;8.04;34.83;101916.06;4978796;28;20045;-83
2022/03/13 08:35:09;;;;;;;8.27;4.75;;;;;;;7.96;36.71;101923.91;4975529;28;20058;-82
2022/03/13 08:37:53;;;;;;;11.65;6.75;;;;;;;7.97;37.11;101909.28;4977982;28;20527;-84
2022/03/13 08:40:38;;;;;;;8.02;4.68;;;;;;;8.27;36.86;101912.03;4980551;28;20053;-83
2022/03/13 08:43:23;;;;;;;8.60;5.68;;;;;;;8.49;37.90;101922.63;4976728;28;20062;-82
2022/03/13 08:46:09;;;;;;;;;;;;;;;8.75;38.66;101915.28;4975005;28;20046;-83
2022/03/13 08:48:54;;;;;;;7.57;4.50;;;;;;;8.58;38.81;101913.66;4991896;28;19921;-78
2022/03/13 08:51:39;;;;;;;5.38;3.70;;;;;;;8.72;38.40;101913.94;4980899;28;20041;-83
2022/03/13 08:54:24;;;;;;;5.25;3.55;;;;;;;8.81;38.75;101915.00;4979865;28;20415;-82
2022/03/13 08:57:09;;;;;;;13.70;5.07;;;;;;;8.16;39.46;101913.91;4968413;28;20045;-83
2022/03/13 08:59:54;;;;;;;6.00;4.13;;;;;;;8.64;38.49;101917.19;4982359;28;20058;-85
2022/03/13 09:02:38;;;;;;;6.93;3.60;;;;;;;7.91;40.07;101916.59;4978594;28;20058;-83
2022/03/13 09:05:23;;;;;;;5.78;3.80;;;;;;;8.17;38.95;101909.31;4981707;28;20415;-82
2022/03/13 09:08:08;;;;;;;;;;;;;;;8.29;39.11;101912.56;4979066;28;20046;-83
2022/03/13 09:10:53;;;;;;;7.22;4.50;;;;;;;8.38;38.49;101916.38;4975992;28;19914;-83
2022/03/13 09:13:37;;;;;;;9.77;4.03;;;;;;;8.97;35.13;101921.22;4970973;28;20550;-84
2022/03/13 09:16:22;;;;;;;9.55;4.65;;;;;;;8.73;34.14;101906.63;4968617;28;20612;-83
2022/03/13 09:19:07;;;;;;;5.35;3.78;;;;;;;9.26;34.23;101922.22;4972509;28;20054;-84
2022/03/13 09:21:52;;;;;;;5.72;3.47;;;;;;;9.11;34.59;101914.13;4979989;28;20054;-83
2022/03/13 09:24:37;;;;;;;11.07;4.83;;;;;;;9.04;34.00;101910.09;4978677;28;20053;-84
2022/03/13 09:27:21;;;;;;;10.23;3.55;;;;;;;9.08;34.08;101911.97;4976436;28;20484;-83
2022/03/13 09:30:07;;;;;;;6.77;4.30;;;;;;;8.95;34.46;101909.81;4976047;28;20065;-82
2022/03/13 09:32:52;;;;;;;7.05;4.60;;;;;;;8.99;35.31;101910.88;4978864;28;20281;-82
2022/03/13 09:35:37;;;;;;;6.78;3.35;;;;;;;9.27;34.59;101902.13;4976418;28;20062;-84
2022/03/13 09:38:22;;;;;;;12.30;4.22;;;;;;;9.26;34.97;101903.22;4980517;28;20119;-84
2022/03/13 09:41:07;;;;;;;4.78;3.38;;;;;;;9.37;33.92;101899.38;4982082;28;20062;-83
2022/03/13 09:43:53;;;;;;;7.88;4.07;;;;;;;9.51;33.22;101898.75;4976674;28;20062;-83
2022/03/13 09:46:38;;;;;;;6.38;3.90;;;;;;;9.23;32.30;101900.25;4977520;28;20058;-83
2022/03/13 09:49:24;;;;;;;8.93;3.58;;;;;;;9.39;31.85;101902.63;4983906;28;20053;-83
2022/03/13 09:52:10;;;;;;;5.63;3.10;;;;;;;9.87;32.04;101897.47;4976188;28;20547;-83
2022/03/13 09:54:55;;;;;;;7.05;3.35;;;;;;;9.67;30.85;101900.31;4981388;28;20049;-82
2022/03/13 09:57:41;;;;;;;5.57;3.22;;;;;;;9.76;32.65;101896.72;4980481;28;20427;-83
2022/03/13 10:00:26;;;;;;;8.38;3.92;;;;;;;9.85;31.66;101886.09;4988841;28;20061;-82
2022/03/13 10:03:13;;;;;;;8.55;6.18;;;;;;;9.92;32.47;101886.59;4976273;28;20530;-81
2022/03/13 10:05:58;;;;;;;7.25;4.18;;;;;;;9.95;33.46;101880.59;4971746;28;20113;-83
2022/03/13 10:08:43;;;;;;;5.13;3.28;;;;;;;9.94;33.75;101886.31;4976251;28;20432;-83
2022/03/13 10:11:33;;;;;;;6.05;3.33;;;;;;;9.65;34.14;101884.28;4977221;28;20061;-80
2022/03/13 10:14:18;;;;;;;7.13;4.30;;;;;;;10.17;34.35;101872.84;4977221;28;20057;-86
2022/03/13 10:17:05;;;;;;;5.78;3.28;;;;;;;10.28;33.55;101868.94;4979481;28;20057;-86
2022/03/13 10:19:49;;;;;;;6.63;4.30;;;;;;;10.14;34.14;101867.13;4974114;28;20058;-84
2022/03/13 10:22:34;;;;;;;6.13;3.97;;;;;;;10.33;34.13;101870.00;4972362;28;20131;-85
2022/03/13 10:25:34;;;;;;;5.83;4.03;;;;;;;10.12;34.05;101869.31;4970318;28;20050;-85
2022/03/13 10:28:30;;;;;;;7.95;4.22;;;;;;;10.50;31.89;101854.09;4975200;28;20639;-84
2022/03/13 10:31:16;;;;;;;6.93;3.47;;;;;;;10.16;32.35;101865.78;4979676;28;20042;-87
2022/03/13 10:34:01;;;;;;;12.73;4.40;;;;;;;10.57;32.92;101865.41;4969421;28;20073;-84
2022/03/13 10:36:48;;;;;;;4.95;3.65;;;;;;;10.45;33.27;101867.72;4965700;28;20053;-84
2022/03/13 10:39:34;;;;;;;6.63;4.32;;;;;;;10.50;33.55;101873.13;4965745;28;20058;-84
2022/03/13 10:42:29;;;;;;;9.45;3.67;;;;;;;10.37;33.41;101866.41;4974254;28;20054;-83
2022/03/13 10:45:37;;;;;;;5.65;3.58;;;;;;;10.24;33.03;101867.09;4984711;28;20053;-83
2022/03/13 10:48:32;;;;;;;5.20;3.83;;;;;;;10.36;33.68;101858.56;4955898;28;20042;-86
2022/03/13 10:51:18;;;;;;;;;;;;;;;10.89;31.71;101862.91;4960617;28;20058;-84
2022/03/13 10:54:03;;;;;;;6.13;3.83;;;;;;;11.03;31.08;101852.94;4958382;28;19914;-84
2022/03/13 10:57:05;;;;;;;7.05;3.83;;;;;;;11.32;29.91;101858.34;4962466;28;20542;-83
2022/03/13 11:00:12;;;;;;;10.35;4.80;;;;;;;11.32;29.06;101849.34;4978481;28;20058;-84
2022/03/13 11:03:12;;;;;;;11.05;4.05;;;;;;;11.59;28.72;101852.22;4983697;28;20046;-83
2022/03/13 11:05:57;;;;;;;5.28;3.42;;;;;;;11.74;26.00;101854.75;4974870;28;20054;-83
2022/03/13 11:08:42;;;;;;;4.50;2.55;;;;;;;12.32;24.68;101846.22;4977007;28;20065;-84
2022/03/13 11:11:28;;;;;;;6.53;3.78;;;;;;;13.57;23.94;101849.50;4975027;28;20523;-84
2022/03/13 11:14:16;;;;;;;11.48;3.15;;;;;;;19.07;18.52;101847.75;4978290;28;20053;-83
2022/03/13 11:17:02;;;;;;;5.00;2.97;;;;;;;25.28;13.45;101853.34;4974401;28;20050;-79
2022/03/13 11:19:50;;;;;;;7.35;3.30;;;;;;;27.53;11.50;101857.84;4982460;28;20050;-80
2022/03/13 11:22:35;;;;;;;5.22;3.15;;;;;;;26.51;12.33;101852.31;4987133;28;20045;-81
2022/03/13 11:25:22;;;;;;;9.57;3.90;;;;;;;27.20;12.25;101853.53;4985157;28;20053;-81
2022/03/13 11:28:07;;;;;;;4.07;3.03;;;;;;;28.02;11.20;101839.28;4973008;28;20522;-80
2022/03/13 11:30:52;;;;;;;6.40;2.63;;;;;;;29.50;10.75;101850.56;4987396;28;20058;-80
2022/03/13 11:33:44;;;;;;;5.32;3.50;;;;;;;30.85;9.37;101852.28;4976694;28;20042;-80
2022/03/13 11:36:33;;;;;;;90.68;8.25;;;;;;;30.06;9.45;101846.28;5007861;22;20050;-73
2022/03/13 11:39:30;;;;;;;4.63;3.00;;;;;;;26.22;11.25;101835.50;4958758;28;20042;-73
2022/03/13 11:42:24;;;;;;;5.85;2.90;;;;;;;28.62;9.79;101849.31;4968225;28;20073;-73
2022/03/13 11:45:30;;;;;;;6.57;2.57;;;;;;;28.92;9.00;101843.91;4972006;28;20049;-73
2022/03/13 11:48:17;;;;;;;3.45;2.63;;;;;;;29.17;9.02;101840.88;4951787;29;20410;-73
2022/03/13 11:51:04;;;;;;;4.95;2.97;;;;;;;33.37;6.65;101844.75;4943596;29;20058;-73
2022/03/13 11:53:49;;;;;;;6.10;2.78;;;;;;;30.10;9.34;101850.63;4948874;29;20058;-73
2022/03/13 11:56:46;;;;;;;9.15;3.92;;;;;;;32.31;8.09;101836.16;4949895;29;20050;-74
2022/03/13 11:59:31;;;;;;;7.10;3.40;;;;;;;31.83;8.63;101838.41;4965296;28;20058;-73
2022/03/13 12:02:41;;;;;;;4.30;2.60;;;;;;;32.07;7.43;101829.84;4951106;29;20070;-74
2022/03/13 12:05:26;;;;;;;3.75;2.65;;;;;;;28.73;8.53;101822.88;4944624;28;20051;-73
2022/03/13 12:08:13;;;;;;;9.63;3.03;;;;;;;29.92;8.04;101816.38;4946040;28;20046;-73
2022/03/13 12:10:58;;;;;;;5.88;2.55;;;;;;;30.25;7.49;101811.91;4953957;29;20073;-74
2022/03/13 12:13:50;;;;;;;2.97;2.50;;;;;;;33.70;5.62;101812.38;4951606;28;20522;-73
2022/03/13 12:16:37;;;;;;;11.32;2.38;;;;;;;34.29;5.37;101808.13;4946471;28;20427;-74
2022/03/13 12:19:22;;;;;;;4.05;2.33;;;;;;;30.32;8.27;101797.78;4943965;29;20407;-73
2022/03/13 12:22:07;;;;;;;4.10;2.45;;;;;;;28.21;9.82;101796.06;4953508;29;20058;-73
2022/03/13 12:24:59;;;;;;;3.88;2.75;;;;;;;29.84;10.17;101794.44;4956342;28;20111;-73
2022/03/13 12:27:45;;;;;;;6.05;2.67;;;;;;;28.47;9.83;101790.66;4953495;28;20050;-73
2022/03/13 12:30:35;;;;;;;5.55;2.72;;;;;;;30.96;8.24;101797.50;4953271;29;20406;-73
2022/03/13 12:33:20;;;;;;;3.28;2.55;;;;;;;30.19;8.43;101796.78;4945841;29;20058;-73
2022/03/13 12:36:05;;;;;;;5.88;3.17;;;;;;;30.37;8.11;101790.91;4953314;28;20046;-72
2022/03/13 12:38:52;;;;;;;4.15;3.00;;;;;;;31.51;7.43;101786.81;4958067;28;20079;-73
2022/03/13 12:41:43;;;;;;;6.47;3.17;;;;;;;25.75;11.05;101783.56;4948936;29;20050;-73
2022/03/13 12:44:29;;;;;;;4.47;3.08;;;;;;;24.20;12.92;101775.75;4947353;29;20050;-73
2022/03/13 12:47:26;;;;;;;4.18;3.28;;;;;;;26.68;11.07;101776.97;4945441;28;20063;-73
2022/03/13 12:50:12;;;;;;;95.00;7.30;;;;;;;30.34;8.87;101781.28;4944576;29;20050;-73
2022/03/13 12:53:00;;;;;;;4.90;4.07;;;;;;;29.99;9.32;101763.00;4939991;29;20047;-73